createdAt,value
2023-03-29T00:01:57.208Z,19
2023-03-29T00:04:45.595Z,18
2023-03-29T00:07:33.417Z,23
2023-03-29T00:10:21.543Z,20
2023-03-29T00:13:09.333Z,13
2023-03-29T00:15:57.220Z,29
2023-03-29T00:18:45.098Z,22
2023-03-29T00:21:33.020Z,15
2023-03-29T00:24:20.901Z,27
2023-03-29T00:27:08.855Z,9
2023-03-29T00:29:56.719Z,25
2023-03-29T00:32:44.562Z,26
2023-03-29T00:35:32.367Z,23
2023-03-29T00:38:20.285Z,20
2023-03-29T00:41:08.176Z,22
2023-03-29T00:43:56.020Z,21
2023-03-29T00:46:43.791Z,19
2023-03-29T00:49:31.690Z,24
2023-03-29T00:52:19.501Z,18
2023-03-29T00:55:07.341Z,25
2023-03-29T00:57:55.195Z,7
2023-03-29T01:00:43.074Z,22
2023-03-29T01:03:30.720Z,22
2023-03-29T01:06:18.898Z,20
2023-03-29T01:09:06.558Z,21
2023-03-29T01:11:54.648Z,22
2023-03-29T01:14:42.406Z,23
2023-03-29T01:17:30.125Z,18
2023-03-29T01:20:18.330Z,19
2023-03-29T01:23:06.019Z,26
2023-03-29T01:25:53.843Z,22
2023-03-29T01:28:41.791Z,15
2023-03-29T01:31:29.638Z,22
2023-03-29T01:34:17.813Z,27
2023-03-29T01:37:05.650Z,12
2023-03-29T01:39:53.586Z,26
2023-03-29T01:42:41.467Z,27
2023-03-29T01:45:29.243Z,20
2023-03-29T01:48:17.237Z,21
2023-03-29T01:51:04.913Z,20
2023-03-29T01:53:52.779Z,16
2023-03-29T01:56:40.726Z,17
2023-03-29T01:59:28.570Z,24
2023-03-29T02:02:16.430Z,20
2023-03-29T02:05:04.406Z,11
2023-03-29T02:07:52.328Z,29
2023-03-29T02:10:40.016Z,11
2023-03-29T02:13:27.862Z,17
2023-03-29T02:16:15.830Z,18
2023-03-29T02:19:03.798Z,21
2023-03-29T02:21:51.603Z,16
2023-03-29T02:24:39.435Z,17
2023-03-29T02:27:27.270Z,19
2023-03-29T02:30:15.158Z,23
2023-03-29T02:33:02.969Z,21
2023-03-29T02:35:50.928Z,18
2023-03-29T02:38:38.801Z,26
2023-03-29T02:41:26.700Z,18
2023-03-29T02:44:14.512Z,23
2023-03-29T02:47:02.604Z,18
2023-03-29T02:49:50.510Z,27
2023-03-29T02:52:38.495Z,25
2023-03-29T02:55:26.289Z,17
2023-03-29T02:58:14.069Z,15
2023-03-29T03:01:01.889Z,14
2023-03-29T03:03:50.080Z,22
2023-03-29T03:06:37.985Z,25
2023-03-29T03:09:25.942Z,18
2023-03-29T03:12:13.805Z,19
2023-03-29T03:15:01.587Z,27
2023-03-29T03:17:49.389Z,22
2023-03-29T03:20:37.211Z,26
2023-03-29T03:23:25.002Z,21
2023-03-29T03:26:13.103Z,20
2023-03-29T03:29:00.920Z,22
2023-03-29T03:31:48.722Z,18
2023-03-29T03:34:36.472Z,19
2023-03-29T03:37:24.316Z,13
2023-03-29T03:40:12.208Z,49
2023-03-29T03:43:00.204Z,9
2023-03-29T03:45:48.034Z,18
2023-03-29T03:48:36.204Z,24
2023-03-29T03:51:23.911Z,19
2023-03-29T03:54:12.446Z,22
2023-03-29T03:57:00.136Z,20
2023-03-29T03:59:48.163Z,19
2023-03-29T04:02:35.956Z,24
2023-03-29T04:05:24.234Z,11
2023-03-29T04:08:12.018Z,20
2023-03-29T04:11:00.133Z,23
2023-03-29T04:13:48.182Z,23
2023-03-29T04:16:36.059Z,22
2023-03-29T04:19:23.915Z,12
2023-03-29T04:22:11.858Z,19
2023-03-29T04:24:59.534Z,14
2023-03-29T04:27:47.236Z,19
2023-03-29T04:30:35.008Z,18
2023-03-29T04:33:23.639Z,23
2023-03-29T04:36:11.375Z,22
2023-03-29T04:38:59.330Z,23
2023-03-29T04:41:47.011Z,25
2023-03-29T04:44:34.827Z,25
2023-03-29T04:47:22.779Z,37
2023-03-29T04:50:10.717Z,36
2023-03-29T04:52:58.605Z,47
2023-03-29T04:55:46.467Z,62
2023-03-29T04:58:34.195Z,98
2023-03-29T05:01:22.066Z,116
2023-03-29T05:04:12.142Z,153
2023-03-29T05:07:00.772Z,188
2023-03-29T05:09:48.635Z,251
2023-03-29T05:12:36.442Z,310
2023-03-29T05:15:24.063Z,358
2023-03-29T05:18:12.195Z,400
2023-03-29T05:21:00.462Z,416
2023-03-29T05:23:48.645Z,452
2023-03-29T05:26:36.451Z,472
2023-03-29T05:29:24.338Z,539
2023-03-29T05:32:12.130Z,608
2023-03-29T05:35:00.213Z,674
2023-03-29T05:37:48.177Z,699
2023-03-29T05:40:36.009Z,713
2023-03-29T05:43:24.228Z,738
2023-03-29T05:46:12.398Z,758
2023-03-29T05:49:00.147Z,780
2023-03-29T05:51:47.882Z,832
2023-03-29T05:54:35.614Z,812
2023-03-29T05:57:23.619Z,815
2023-03-29T06:00:11.448Z,818
2023-03-29T06:03:06.639Z,816
2023-03-29T06:05:58.693Z,827
2023-03-29T06:08:46.507Z,855
2023-03-29T06:11:34.346Z,863
2023-03-29T06:14:22.294Z,868
2023-03-29T06:17:10.128Z,865
2023-03-29T06:19:58.123Z,876
2023-03-29T06:22:46.018Z,880
2023-03-29T06:25:33.934Z,872
2023-03-29T06:28:21.724Z,882
2023-03-29T06:31:12.136Z,897
2023-03-29T06:34:00.187Z,898
2023-03-29T06:36:47.929Z,909
2023-03-29T06:39:35.714Z,903
2023-03-29T06:42:23.504Z,900
2023-03-29T06:45:11.281Z,903
2023-03-29T06:47:59.172Z,899
2023-03-29T06:50:47.099Z,892
2023-03-29T06:53:34.900Z,871
2023-03-29T06:56:25.446Z,892
2023-03-29T06:59:13.489Z,896
2023-03-29T07:02:01.218Z,907
2023-03-29T07:04:49.353Z,906
2023-03-29T07:07:37.280Z,887
2023-03-29T07:10:25.184Z,878
2023-03-29T07:13:13.004Z,888
2023-03-29T07:16:00.754Z,899
2023-03-29T07:18:48.538Z,907
2023-03-29T07:21:37.831Z,906
2023-03-29T07:24:25.723Z,913
2023-03-29T07:27:13.716Z,919
2023-03-29T07:30:01.439Z,922
2023-03-29T07:32:52.464Z,928
2023-03-29T07:35:40.698Z,914
2023-03-29T07:38:28.863Z,921
2023-03-29T07:41:16.775Z,924
2023-03-29T07:44:04.602Z,932
2023-03-29T07:46:52.384Z,934
2023-03-29T07:49:40.275Z,930
2023-03-29T07:52:28.003Z,925
2023-03-29T07:55:16.176Z,920
2023-03-29T07:58:07.050Z,915
2023-03-29T08:00:54.857Z,921
2023-03-29T08:03:42.930Z,920
2023-03-29T08:06:31.118Z,909
2023-03-29T08:09:18.848Z,901
2023-03-29T08:12:06.714Z,905
2023-03-29T15:42:25.282Z,940
2023-03-29T15:45:13.034Z,943
2023-03-29T15:48:00.731Z,927
2023-03-29T15:50:48.659Z,945
2023-03-29T15:53:36.442Z,958
2023-03-29T15:56:24.072Z,955
2023-03-29T15:59:12.190Z,945
2023-03-29T16:02:00.193Z,951
2023-03-29T16:04:48.347Z,958
2023-03-29T16:07:36.129Z,947
2023-03-29T16:10:24.005Z,945
2023-03-29T16:13:11.892Z,941
2023-03-29T16:15:59.914Z,945
2023-03-29T16:18:48.051Z,941
2023-03-29T16:21:35.808Z,919
2023-03-29T16:24:23.586Z,892
2023-03-29T16:27:11.583Z,875
2023-03-29T16:29:59.290Z,885
2023-03-29T16:32:47.203Z,899
2023-03-29T16:35:35.526Z,889
2023-03-29T16:38:24.007Z,893
2023-03-29T16:41:11.926Z,896
2023-03-29T16:43:59.564Z,891
2023-03-29T16:46:47.410Z,893
2023-03-29T16:49:35.169Z,894
2023-03-29T16:52:23.161Z,883
2023-03-29T16:55:10.891Z,886
2023-03-29T16:57:58.671Z,886
2023-03-29T17:00:48.361Z,875
2023-03-29T17:03:36.523Z,879
2023-03-29T17:06:24.613Z,877
2023-03-29T17:09:12.568Z,843
2023-03-29T17:12:00.452Z,790
2023-03-29T17:14:48.184Z,785
2023-03-29T17:17:36.030Z,803
2023-03-29T17:20:23.916Z,801
2023-03-29T17:23:11.632Z,773
2023-03-29T17:25:59.421Z,729
2023-03-29T17:28:47.464Z,716
2023-03-29T17:31:35.278Z,751
2023-03-29T17:34:23.026Z,751
2023-03-29T17:37:10.718Z,737
2023-03-29T17:39:58.572Z,709
2023-03-29T17:42:46.588Z,679
2023-03-29T17:45:34.231Z,658
2023-03-29T17:48:22.667Z,609
2023-03-29T17:51:10.348Z,561
2023-03-29T17:53:57.974Z,531
2023-03-29T17:56:45.788Z,493
2023-03-29T17:59:33.691Z,446
2023-03-29T18:02:21.709Z,390
2023-03-29T18:05:09.668Z,331
2023-03-29T18:07:57.554Z,289
2023-03-29T18:10:45.199Z,245
2023-03-29T18:13:33.096Z,205
2023-03-29T18:16:20.961Z,150
2023-03-29T18:19:08.854Z,111
2023-03-29T18:21:56.677Z,80
2023-03-29T18:24:44.451Z,63
2023-03-29T18:27:32.298Z,44
2023-03-29T18:30:20.098Z,29
2023-03-29T18:33:07.987Z,30
2023-03-29T18:35:56.016Z,25
2023-03-29T18:38:44.011Z,24
2023-03-29T18:41:31.791Z,12
2023-03-29T18:44:19.771Z,24
2023-03-29T18:47:07.635Z,28
2023-03-29T18:49:55.801Z,22
2023-03-29T18:52:43.624Z,20
2023-03-29T18:55:31.413Z,18
2023-03-29T18:58:19.246Z,16
2023-03-29T19:01:06.990Z,23
2023-03-29T19:03:55.239Z,14
2023-03-29T19:06:46.363Z,23
2023-03-29T19:09:34.294Z,25
2023-03-29T19:12:22.157Z,27
2023-03-29T19:15:09.994Z,7
2023-03-29T19:17:57.909Z,21
2023-03-29T19:20:46.000Z,15
2023-03-29T19:23:33.753Z,19
2023-03-29T19:26:21.596Z,28
2023-03-29T19:29:09.417Z,23
2023-03-29T19:31:57.073Z,26
2023-03-29T19:34:44.788Z,22
2023-03-29T19:37:32.596Z,19
2023-03-29T19:40:20.446Z,16
2023-03-29T19:43:08.331Z,25
2023-03-29T19:45:56.024Z,25
2023-03-29T19:48:43.892Z,22
2023-03-29T19:51:31.629Z,14
2023-03-29T19:54:19.541Z,10
2023-03-29T19:57:07.558Z,20
2023-03-29T19:59:55.461Z,10
2023-03-29T20:02:43.194Z,8
2023-03-29T20:05:31.207Z,12
2023-03-29T20:08:19.047Z,22
2023-03-29T20:11:06.945Z,21
2023-03-29T20:13:54.868Z,21
2023-03-29T20:16:42.731Z,20
2023-03-29T20:19:30.487Z,23
2023-03-29T20:22:18.162Z,10
2023-03-29T20:25:05.877Z,14
2023-03-29T20:27:53.811Z,18
2023-03-29T20:30:41.577Z,17
2023-03-29T20:33:29.368Z,19
2023-03-29T20:36:17.494Z,22
2023-03-29T20:39:05.531Z,14
2023-03-29T20:41:53.210Z,17
2023-03-29T20:44:41.168Z,18
2023-03-29T20:47:29.087Z,18
2023-03-29T20:50:17.483Z,25
2023-03-29T20:53:05.263Z,12
2023-03-29T20:55:53.150Z,18
2023-03-29T20:58:40.879Z,11
2023-03-29T21:01:28.617Z,21
2023-03-29T21:04:16.762Z,19
2023-03-29T21:07:04.642Z,15
2023-03-29T21:09:52.376Z,24
2023-03-29T21:12:40.340Z,15
2023-03-29T21:15:27.985Z,18
2023-03-29T21:18:15.898Z,20
2023-03-29T21:21:03.792Z,18
2023-03-29T21:23:51.719Z,21
2023-03-29T21:26:39.428Z,6
2023-03-29T21:29:27.125Z,18
2023-03-29T21:32:14.901Z,9
2023-03-29T21:35:02.988Z,13
2023-03-29T21:37:51.020Z,3
2023-03-29T21:40:38.810Z,15
2023-03-29T21:43:26.808Z,15
2023-03-29T21:46:14.549Z,19
2023-03-29T21:49:02.633Z,20
2023-03-29T21:51:50.480Z,16
2023-03-29T21:54:38.501Z,13
2023-03-29T21:57:26.311Z,16
2023-03-29T22:00:14.001Z,13
2023-03-29T22:03:01.961Z,17
2023-03-29T22:05:49.781Z,19
2023-03-29T22:08:37.647Z,17
2023-03-29T22:11:25.397Z,14
2023-03-29T22:14:13.024Z,17
2023-03-29T22:17:00.809Z,2
2023-03-29T22:19:48.753Z,15
2023-03-29T22:22:36.577Z,17
2023-03-29T22:25:24.494Z,16
2023-03-29T22:28:12.351Z,16
2023-03-29T22:31:00.286Z,22
2023-03-29T22:33:48.327Z,16
2023-03-29T22:36:36.122Z,17
2023-03-29T22:39:23.844Z,13
2023-03-29T22:42:11.701Z,20
2023-03-29T22:44:59.685Z,16
2023-03-29T22:47:47.577Z,15
2023-03-29T22:50:35.384Z,13
2023-03-29T22:53:23.780Z,21
2023-03-29T22:56:11.583Z,15
2023-03-29T22:58:59.573Z,5
2023-03-29T23:01:47.501Z,17
2023-03-29T23:04:35.461Z,11
2023-03-29T23:07:23.103Z,19
2023-03-29T23:10:11.041Z,15
2023-03-29T23:12:58.635Z,21
2023-03-29T23:15:46.429Z,13
2023-03-29T23:18:34.276Z,4
2023-03-29T23:21:22.105Z,14
2023-03-29T23:24:09.911Z,14
2023-03-29T23:26:57.594Z,16
2023-03-29T23:29:45.367Z,18
